sensor_id;sensor_type;location;lat;lon;timestamp;pressure;altitude;pressure_sealevel;temperature;humidity
59608;BME280;45426;44.726;10.390;2023-07-09T00:02:25;100980.69;;;24.90;100.00
59608;BME280;45426;44.726;10.390;2023-07-09T00:04:51;100975.25;;;24.79;100.00
59608;BME280;45426;44.726;10.390;2023-07-09T00:09:44;100976.84;;;24.80;100.00
59608;BME280;45426;44.726;10.390;2023-07-09T00:12:15;100979.03;;;24.66;100.00
59608;BME280;45426;44.726;10.390;2023-07-09T00:14:41;100979.38;;;24.68;100.00
59608;BME280;45426;44.726;10.390;2023-07-09T00:17:11;100973.53;;;24.58;100.00
59608;BME280;45426;44.726;10.390;2023-07-09T00:19:37;100975.47;;;24.65;100.00
59608;BME280;45426;44.726;10.390;2023-07-09T00:22:13;100979.78;;;24.66;100.00
59608;BME280;45426;44.726;10.390;2023-07-09T00:24:42;100973.13;;;24.60;100.00
59608;BME280;45426;44.726;10.390;2023-07-09T00:27:10;100966.22;;;25.03;100.00
59608;BME280;45426;44.726;10.390;2023-07-09T00:29:36;100965.00;;;25.04;100.00
59608;BME280;45426;44.726;10.390;2023-07-09T00:32:01;100965.84;;;25.00;100.00
59608;BME280;45426;44.726;10.390;2023-07-09T00:34:27;100963.59;;;25.19;100.00
59608;BME280;45426;44.726;10.390;2023-07-09T00:36:52;100970.84;;;25.13;100.00
59608;BME280;45426;44.726;10.390;2023-07-09T00:39:20;100969.28;;;24.81;100.00
59608;BME280;45426;44.726;10.390;2023-07-09T00:41:46;100976.44;;;24.44;100.00
59608;BME280;45426;44.726;10.390;2023-07-09T00:44:26;100978.94;;;24.35;100.00
59608;BME280;45426;44.726;10.390;2023-07-09T00:49:34;100986.41;;;24.76;100.00
59608;BME280;45426;44.726;10.390;2023-07-09T00:52:03;100986.91;;;24.71;100.00
59608;BME280;45426;44.726;10.390;2023-07-09T00:54:37;100983.63;;;25.07;100.00
59608;BME280;45426;44.726;10.390;2023-07-09T00:57:14;100994.47;;;24.67;100.00
59608;BME280;45426;44.726;10.390;2023-07-09T00:59:44;100985.47;;;24.90;100.00
59608;BME280;45426;44.726;10.390;2023-07-09T01:02:11;100974.25;;;24.97;100.00
59608;BME280;45426;44.726;10.390;2023-07-09T01:04:37;100977.44;;;24.95;100.00
59608;BME280;45426;44.726;10.390;2023-07-09T01:07:04;100980.50;;;25.05;100.00
59608;BME280;45426;44.726;10.390;2023-07-09T01:09:30;100979.84;;;24.93;100.00
59608;BME280;45426;44.726;10.390;2023-07-09T01:11:56;100983.72;;;24.99;100.00
59608;BME280;45426;44.726;10.390;2023-07-09T01:14:26;100984.16;;;24.98;100.00
59608;BME280;45426;44.726;10.390;2023-07-09T01:17:00;100978.28;;;24.92;100.00
59608;BME280;45426;44.726;10.390;2023-07-09T01:19:28;100987.81;;;24.91;100.00
59608;BME280;45426;44.726;10.390;2023-07-09T01:21:57;100994.78;;;24.72;100.00
59608;BME280;45426;44.726;10.390;2023-07-09T01:24:51;100990.66;;;24.50;100.00
59608;BME280;45426;44.726;10.390;2023-07-09T01:27:20;100989.88;;;24.53;100.00
59608;BME280;45426;44.726;10.390;2023-07-09T01:29:47;100987.53;;;24.82;100.00
59608;BME280;45426;44.726;10.390;2023-07-09T01:32:18;100992.44;;;24.71;100.00
59608;BME280;45426;44.726;10.390;2023-07-09T01:34:46;100978.81;;;24.80;100.00
59608;BME280;45426;44.726;10.390;2023-07-09T01:37:18;100969.69;;;24.79;100.00
59608;BME280;45426;44.726;10.390;2023-07-09T01:39:44;100976.44;;;24.44;100.00
59608;BME280;45426;44.726;10.390;2023-07-09T01:42:10;100987.13;;;24.11;100.00
59608;BME280;45426;44.726;10.390;2023-07-09T01:44:36;100988.06;;;23.94;100.00
59608;BME280;45426;44.726;10.390;2023-07-09T01:47:02;100984.47;;;24.00;100.00
59608;BME280;45426;44.726;10.390;2023-07-09T01:49:30;100989.22;;;24.00;100.00
59608;BME280;45426;44.726;10.390;2023-07-09T01:51:59;100982.53;;;23.94;100.00
59608;BME280;45426;44.726;10.390;2023-07-09T01:54:28;100977.44;;;23.89;100.00
59608;BME280;45426;44.726;10.390;2023-07-09T01:56:53;100984.13;;;23.95;100.00
59608;BME280;45426;44.726;10.390;2023-07-09T01:59:26;100981.09;;;24.16;100.00
59608;BME280;45426;44.726;10.390;2023-07-09T02:01:52;100980.47;;;24.39;100.00
59608;BME280;45426;44.726;10.390;2023-07-09T02:04:18;100983.22;;;24.43;100.00
59608;BME280;45426;44.726;10.390;2023-07-09T02:06:44;100976.94;;;24.39;100.00
59608;BME280;45426;44.726;10.390;2023-07-09T02:09:09;100980.91;;;24.38;100.00
59608;BME280;45426;44.726;10.390;2023-07-09T02:11:35;100982.63;;;24.25;100.00
59608;BME280;45426;44.726;10.390;2023-07-09T02:14:00;100983.22;;;24.05;100.00
59608;BME280;45426;44.726;10.390;2023-07-09T02:16:26;100985.53;;;24.10;100.00
59608;BME280;45426;44.726;10.390;2023-07-09T02:18:51;100986.75;;;24.09;100.00
59608;BME280;45426;44.726;10.390;2023-07-09T02:21:16;100991.09;;;24.10;100.00
59608;BME280;45426;44.726;10.390;2023-07-09T02:23:42;100996.50;;;24.25;100.00
59608;BME280;45426;44.726;10.390;2023-07-09T02:26:07;100985.22;;;24.01;100.00
59608;BME280;45426;44.726;10.390;2023-07-09T02:28:33;100981.19;;;24.47;100.00
59608;BME280;45426;44.726;10.390;2023-07-09T02:30:58;100982.88;;;24.37;100.00
59608;BME280;45426;44.726;10.390;2023-07-09T02:33:23;100995.09;;;24.09;100.00
59608;BME280;45426;44.726;10.390;2023-07-09T02:35:49;100986.31;;;24.11;100.00
59608;BME280;45426;44.726;10.390;2023-07-09T02:38:14;100994.78;;;24.00;100.00
59608;BME280;45426;44.726;10.390;2023-07-09T02:40:40;100999.47;;;24.03;100.00
59608;BME280;45426;44.726;10.390;2023-07-09T02:43:05;100999.78;;;24.12;100.00
59608;BME280;45426;44.726;10.390;2023-07-09T02:45:31;101002.94;;;24.14;100.00
59608;BME280;45426;44.726;10.390;2023-07-09T02:47:56;101005.22;;;24.27;100.00
59608;BME280;45426;44.726;10.390;2023-07-09T02:50:21;100999.47;;;24.03;100.00
59608;BME280;45426;44.726;10.390;2023-07-09T02:52:47;101002.50;;;23.74;100.00
59608;BME280;45426;44.726;10.390;2023-07-09T02:55:12;101003.84;;;23.55;100.00
59608;BME280;45426;44.726;10.390;2023-07-09T02:57:38;100996.34;;;23.49;100.00
59608;BME280;45426;44.726;10.390;2023-07-09T03:00:04;101005.78;;;23.58;100.00
59608;BME280;45426;44.726;10.390;2023-07-09T03:02:30;101000.34;;;23.44;100.00
59608;BME280;45426;44.726;10.390;2023-07-09T03:04:56;101003.41;;;23.60;100.00
59608;BME280;45426;44.726;10.390;2023-07-09T03:07:21;101007.75;;;23.58;100.00
59608;BME280;45426;44.726;10.390;2023-07-09T03:09:47;101014.38;;;23.75;100.00
59608;BME280;45426;44.726;10.390;2023-07-09T03:12:12;101014.53;;;23.57;100.00
59608;BME280;45426;44.726;10.390;2023-07-09T03:14:37;101013.28;;;23.61;100.00
59608;BME280;45426;44.726;10.390;2023-07-09T03:17:03;101014.56;;;23.50;100.00
59608;BME280;45426;44.726;10.390;2023-07-09T03:19:29;101011.44;;;23.44;100.00
59608;BME280;45426;44.726;10.390;2023-07-09T03:21:54;101023.69;;;23.47;100.00
59608;BME280;45426;44.726;10.390;2023-07-09T03:24:19;101022.41;;;23.58;100.00
59608;BME280;45426;44.726;10.390;2023-07-09T03:26:45;101024.59;;;23.89;100.00
59608;BME280;45426;44.726;10.390;2023-07-09T03:29:11;101017.47;;;23.88;100.00
59608;BME280;45426;44.726;10.390;2023-07-09T03:31:37;101022.97;;;23.95;100.00
59608;BME280;45426;44.726;10.390;2023-07-09T03:34:03;101013.81;;;23.98;100.00
59608;BME280;45426;44.726;10.390;2023-07-09T03:36:28;101022.19;;;23.94;100.00
59608;BME280;45426;44.726;10.390;2023-07-09T03:38:54;101015.84;;;23.90;100.00
59608;BME280;45426;44.726;10.390;2023-07-09T03:41:19;101015.56;;;23.77;100.00
59608;BME280;45426;44.726;10.390;2023-07-09T03:43:45;101019.25;;;23.56;100.00
59608;BME280;45426;44.726;10.390;2023-07-09T03:46:10;101023.28;;;23.48;100.00
59608;BME280;45426;44.726;10.390;2023-07-09T03:48:36;101030.50;;;23.38;100.00
59608;BME280;45426;44.726;10.390;2023-07-09T03:51:02;101027.19;;;23.58;100.00
59608;BME280;45426;44.726;10.390;2023-07-09T03:53:27;101033.38;;;23.76;100.00
59608;BME280;45426;44.726;10.390;2023-07-09T03:55:54;101028.22;;;23.82;100.00
59608;BME280;45426;44.726;10.390;2023-07-09T03:58:20;101034.19;;;23.73;100.00
59608;BME280;45426;44.726;10.390;2023-07-09T04:00:45;101042.84;;;23.86;100.00
59608;BME280;45426;44.726;10.390;2023-07-09T04:03:11;101045.25;;;23.77;100.00
59608;BME280;45426;44.726;10.390;2023-07-09T04:05:36;101047.59;;;23.86;100.00
59608;BME280;45426;44.726;10.390;2023-07-09T04:08:03;101048.72;;;23.95;100.00
59608;BME280;45426;44.726;10.390;2023-07-09T04:10:28;101042.75;;;23.97;100.00
59608;BME280;45426;44.726;10.390;2023-07-09T04:12:54;101050.34;;;23.89;100.00
59608;BME280;45426;44.726;10.390;2023-07-09T04:15:19;101045.53;;;23.97;100.00
59608;BME280;45426;44.726;10.390;2023-07-09T04:17:45;101043.59;;;23.90;100.00
59608;BME280;45426;44.726;10.390;2023-07-09T04:20:10;101040.41;;;23.92;100.00
59608;BME280;45426;44.726;10.390;2023-07-09T04:22:37;101039.00;;;23.65;100.00
59608;BME280;45426;44.726;10.390;2023-07-09T04:25:03;101041.41;;;23.60;100.00
59608;BME280;45426;44.726;10.390;2023-07-09T04:27:30;101034.66;;;23.68;100.00
59608;BME280;45426;44.726;10.390;2023-07-09T04:29:56;101039.59;;;23.95;100.00
59608;BME280;45426;44.726;10.390;2023-07-09T04:32:22;101045.84;;;24.06;100.00
59608;BME280;45426;44.726;10.390;2023-07-09T04:34:48;101043.78;;;24.17;100.00
59608;BME280;45426;44.726;10.390;2023-07-09T04:37:14;101056.19;;;24.06;100.00
59608;BME280;45426;44.726;10.390;2023-07-09T04:39:42;101040.41;;;23.92;100.00
59608;BME280;45426;44.726;10.390;2023-07-09T04:42:13;101047.13;;;23.98;100.00
59608;BME280;45426;44.726;10.390;2023-07-09T04:44:39;101048.19;;;24.11;100.00
59608;BME280;45426;44.726;10.390;2023-07-09T04:47:05;101050.00;;;24.29;100.00
59608;BME280;45426;44.726;10.390;2023-07-09T04:49:30;101049.63;;;24.27;100.00
59608;BME280;45426;44.726;10.390;2023-07-09T04:51:56;101050.22;;;24.49;100.00
59608;BME280;45426;44.726;10.390;2023-07-09T04:54:23;101033.50;;;24.56;100.00
59608;BME280;45426;44.726;10.390;2023-07-09T04:56:48;101029.50;;;24.57;100.00
59608;BME280;45426;44.726;10.390;2023-07-09T04:59:14;101044.66;;;24.52;100.00
59608;BME280;45426;44.726;10.390;2023-07-09T05:01:40;101034.13;;;24.71;100.00
59608;BME280;45426;44.726;10.390;2023-07-09T05:04:05;101041.19;;;24.75;100.00
59608;BME280;45426;44.726;10.390;2023-07-09T05:06:32;101031.31;;;25.05;100.00
59608;BME280;45426;44.726;10.390;2023-07-09T05:08:58;101049.63;;;25.03;100.00
59608;BME280;45426;44.726;10.390;2023-07-09T05:11:24;101037.84;;;24.91;100.00
59608;BME280;45426;44.726;10.390;2023-07-09T05:13:49;101039.88;;;25.18;100.00
59608;BME280;45426;44.726;10.390;2023-07-09T05:16:14;101037.47;;;25.20;100.00
59608;BME280;45426;44.726;10.390;2023-07-09T05:18:40;101042.84;;;25.34;100.00
59608;BME280;45426;44.726;10.390;2023-07-09T05:21:05;101049.88;;;25.12;100.00
59608;BME280;45426;44.726;10.390;2023-07-09T05:23:31;101051.97;;;25.35;100.00
59608;BME280;45426;44.726;10.390;2023-07-09T05:25:57;101044.22;;;25.50;100.00
59608;BME280;45426;44.726;10.390;2023-07-09T05:28:23;101051.81;;;25.73;100.00
59608;BME280;45426;44.726;10.390;2023-07-09T05:30:48;101051.03;;;25.72;100.00
59608;BME280;45426;44.726;10.390;2023-07-09T05:33:13;101056.38;;;25.60;100.00
59608;BME280;45426;44.726;10.390;2023-07-09T05:35:39;101061.91;;;25.63;100.00
59608;BME280;45426;44.726;10.390;2023-07-09T05:38:04;101067.03;;;25.65;100.00
59608;BME280;45426;44.726;10.390;2023-07-09T05:40:30;101065.31;;;26.02;100.00
59608;BME280;45426;44.726;10.390;2023-07-09T05:42:55;101061.53;;;27.36;100.00
59608;BME280;45426;44.726;10.390;2023-07-09T05:45:20;101049.38;;;29.89;100.00
59608;BME280;45426;44.726;10.390;2023-07-09T05:47:46;101056.91;;;29.67;100.00
59608;BME280;45426;44.726;10.390;2023-07-09T05:50:11;101058.22;;;28.39;100.00
59608;BME280;45426;44.726;10.390;2023-07-09T05:52:37;101060.69;;;27.55;100.00
59608;BME280;45426;44.726;10.390;2023-07-09T05:55:02;101059.97;;;27.35;100.00
59608;BME280;45426;44.726;10.390;2023-07-09T05:57:28;101063.19;;;26.93;100.00
59608;BME280;45426;44.726;10.390;2023-07-09T05:59:53;101069.94;;;26.76;100.00
59608;BME280;45426;44.726;10.390;2023-07-09T06:02:20;101072.50;;;26.66;100.00
59608;BME280;45426;44.726;10.390;2023-07-09T06:04:46;101064.91;;;27.07;100.00
59608;BME280;45426;44.726;10.390;2023-07-09T06:07:14;101061.84;;;27.01;100.00
59608;BME280;45426;44.726;10.390;2023-07-09T06:09:39;101063.81;;;27.21;100.00
59608;BME280;45426;44.726;10.390;2023-07-09T06:12:06;101060.03;;;27.31;100.00
59608;BME280;45426;44.726;10.390;2023-07-09T06:14:32;101067.84;;;27.56;100.00
59608;BME280;45426;44.726;10.390;2023-07-09T06:16:58;101069.03;;;28.54;100.00
59608;BME280;45426;44.726;10.390;2023-07-09T06:19:24;101072.41;;;33.27;100.00
59608;BME280;45426;44.726;10.390;2023-07-09T06:21:49;101071.63;;;33.93;100.00
59608;BME280;45426;44.726;10.390;2023-07-09T06:24:15;101068.44;;;34.93;100.00
59608;BME280;45426;44.726;10.390;2023-07-09T06:26:40;101063.88;;;36.69;100.00
59608;BME280;45426;44.726;10.390;2023-07-09T06:29:06;101073.69;;;33.83;100.00
59608;BME280;45426;44.726;10.390;2023-07-09T06:31:31;101067.28;;;33.50;100.00
59608;BME280;45426;44.726;10.390;2023-07-09T06:33:57;101070.13;;;33.83;100.00
59608;BME280;45426;44.726;10.390;2023-07-09T06:36:23;101062.69;;;34.73;100.00
59608;BME280;45426;44.726;10.390;2023-07-09T06:38:48;101064.31;;;34.50;100.00
59608;BME280;45426;44.726;10.390;2023-07-09T06:41:14;101062.78;;;34.93;100.00
59608;BME280;45426;44.726;10.390;2023-07-09T06:43:40;101065.84;;;37.59;100.00
59608;BME280;45426;44.726;10.390;2023-07-09T06:46:08;101059.81;;;39.28;100.00
59608;BME280;45426;44.726;10.390;2023-07-09T06:48:35;101053.84;;;40.18;100.00
59608;BME280;45426;44.726;10.390;2023-07-09T06:51:00;101048.09;;;39.65;100.00
59608;BME280;45426;44.726;10.390;2023-07-09T06:53:27;101062.69;;;39.05;100.00
59608;BME280;45426;44.726;10.390;2023-07-09T06:55:53;101068.03;;;38.47;100.00
59608;BME280;45426;44.726;10.390;2023-07-09T06:58:21;101064.38;;;40.70;100.00
59608;BME280;45426;44.726;10.390;2023-07-09T07:00:51;101056.81;;;40.43;100.00
59608;BME280;45426;44.726;10.390;2023-07-09T07:03:17;101066.88;;;41.40;100.00
59608;BME280;45426;44.726;10.390;2023-07-09T07:05:47;101067.72;;;41.35;100.00
59608;BME280;45426;44.726;10.390;2023-07-09T07:08:18;101067.59;;;41.71;99.05
59608;BME280;45426;44.726;10.390;2023-07-09T07:10:45;101063.28;;;42.40;85.32
59608;BME280;45426;44.726;10.390;2023-07-09T07:13:12;101067.63;;;42.47;88.10
59608;BME280;45426;44.726;10.390;2023-07-09T07:15:38;101070.47;;;43.12;86.94
59608;BME280;45426;44.726;10.390;2023-07-09T07:18:04;101072.56;;;42.79;81.87
59608;BME280;45426;44.726;10.390;2023-07-09T07:20:30;101065.38;;;42.02;90.62
59608;BME280;45426;44.726;10.390;2023-07-09T07:22:56;101070.88;;;42.89;87.96
59608;BME280;45426;44.726;10.390;2023-07-09T07:25:23;101069.47;;;42.25;81.42
59608;BME280;45426;44.726;10.390;2023-07-09T07:27:49;101069.50;;;42.77;94.40
59608;BME280;45426;44.726;10.390;2023-07-09T07:30:15;101073.56;;;41.92;88.76
59608;BME280;45426;44.726;10.390;2023-07-09T07:32:45;101066.91;;;42.03;86.40
59608;BME280;45426;44.726;10.390;2023-07-09T07:35:12;101077.78;;;40.75;88.81
59608;BME280;45426;44.726;10.390;2023-07-09T07:37:39;101070.63;;;36.25;100.00
59608;BME280;45426;44.726;10.390;2023-07-09T07:40:05;101069.56;;;35.31;100.00
59608;BME280;45426;44.726;10.390;2023-07-09T07:42:31;101060.94;;;34.90;100.00
59608;BME280;45426;44.726;10.390;2023-07-09T07:44:56;101066.59;;;34.90;100.00
59608;BME280;45426;44.726;10.390;2023-07-09T07:47:22;101064.13;;;35.13;100.00
59608;BME280;45426;44.726;10.390;2023-07-09T07:49:47;101060.16;;;35.19;100.00
59608;BME280;45426;44.726;10.390;2023-07-09T07:52:13;101068.50;;;35.64;100.00
59608;BME280;45426;44.726;10.390;2023-07-09T07:54:38;101060.72;;;35.09;100.00
59608;BME280;45426;44.726;10.390;2023-07-09T07:57:04;101056.75;;;34.71;100.00
59608;BME280;45426;44.726;10.390;2023-07-09T07:59:30;101063.66;;;34.85;100.00
59608;BME280;45426;44.726;10.390;2023-07-09T08:01:57;101067.13;;;34.50;100.00
59608;BME280;45426;44.726;10.390;2023-07-09T08:04:23;101061.09;;;34.57;100.00
59608;BME280;45426;44.726;10.390;2023-07-09T08:06:49;101059.00;;;34.28;100.00
59608;BME280;45426;44.726;10.390;2023-07-09T08:09:15;101054.88;;;35.12;100.00
59608;BME280;45426;44.726;10.390;2023-07-09T08:11:41;101046.34;;;34.77;100.00
59608;BME280;45426;44.726;10.390;2023-07-09T08:14:06;101048.25;;;34.56;100.00
59608;BME280;45426;44.726;10.390;2023-07-09T08:16:32;101047.19;;;34.14;100.00
59608;BME280;45426;44.726;10.390;2023-07-09T08:18:57;101051.75;;;34.51;100.00
59608;BME280;45426;44.726;10.390;2023-07-09T08:21:22;101047.84;;;34.33;100.00
59608;BME280;45426;44.726;10.390;2023-07-09T08:23:48;101041.41;;;34.18;100.00
59608;BME280;45426;44.726;10.390;2023-07-09T08:26:13;101055.72;;;34.05;100.00
59608;BME280;45426;44.726;10.390;2023-07-09T08:28:39;101048.94;;;34.12;100.00
59608;BME280;45426;44.726;10.390;2023-07-09T08:31:04;101053.56;;;34.00;100.00
59608;BME280;45426;44.726;10.390;2023-07-09T08:33:30;101055.66;;;33.90;100.00
59608;BME280;45426;44.726;10.390;2023-07-09T08:35:55;101048.44;;;34.52;100.00
59608;BME280;45426;44.726;10.390;2023-07-09T08:38:22;101043.00;;;34.64;100.00
59608;BME280;45426;44.726;10.390;2023-07-09T08:46:27;101047.28;;;34.44;100.00
59608;BME280;45426;44.726;10.390;2023-07-09T08:48:54;101046.06;;;34.36;100.00
59608;BME280;45426;44.726;10.390;2023-07-09T08:51:48;101041.06;;;34.40;100.00
59608;BME280;45426;44.726;10.390;2023-07-09T08:54:20;101042.00;;;34.37;100.00
59608;BME280;45426;44.726;10.390;2023-07-09T08:56:50;101037.00;;;34.71;100.00
59608;BME280;45426;44.726;10.390;2023-07-09T08:59:17;101051.09;;;34.17;100.00
59608;BME280;45426;44.726;10.390;2023-07-09T09:01:51;101049.88;;;34.33;100.00
59608;BME280;45426;44.726;10.390;2023-07-09T09:04:25;101037.56;;;34.75;100.00
59608;BME280;45426;44.726;10.390;2023-07-09T09:09:43;101055.75;;;34.59;100.00
59608;BME280;45426;44.726;10.390;2023-07-09T09:12:26;101042.94;;;34.73;100.00
59608;BME280;45426;44.726;10.390;2023-07-09T09:15:18;101041.03;;;34.25;100.00
59608;BME280;45426;44.726;10.390;2023-07-09T09:17:50;101043.81;;;34.79;100.00
59608;BME280;45426;44.726;10.390;2023-07-09T09:20:19;101044.94;;;34.57;100.00
59608;BME280;45426;44.726;10.390;2023-07-09T09:23:14;101046.09;;;34.66;100.00
59608;BME280;45426;44.726;10.390;2023-07-09T09:25:44;101041.22;;;34.21;100.00
59608;BME280;45426;44.726;10.390;2023-07-09T09:28:12;101042.84;;;34.82;100.00
59608;BME280;45426;44.726;10.390;2023-07-09T09:30:39;101038.53;;;35.16;100.00
59608;BME280;45426;44.726;10.390;2023-07-09T09:33:09;101043.56;;;35.27;100.00
59608;BME280;45426;44.726;10.390;2023-07-09T09:35:38;101044.28;;;34.63;100.00
59608;BME280;45426;44.726;10.390;2023-07-09T09:38:17;101042.22;;;34.63;100.00
59608;BME280;45426;44.726;10.390;2023-07-09T09:40:43;101044.88;;;34.96;100.00
59608;BME280;45426;44.726;10.390;2023-07-09T09:43:19;101044.28;;;34.48;100.00
59608;BME280;45426;44.726;10.390;2023-07-09T09:45:48;101040.41;;;34.75;100.00
59608;BME280;45426;44.726;10.390;2023-07-09T09:48:36;101043.97;;;35.20;100.00
59608;BME280;45426;44.726;10.390;2023-07-09T09:51:05;101042.97;;;34.10;100.00
59608;BME280;45426;44.726;10.390;2023-07-09T09:53:38;101036.31;;;35.06;100.00
59608;BME280;45426;44.726;10.390;2023-07-09T09:56:07;101035.31;;;35.09;100.00
59608;BME280;45426;44.726;10.390;2023-07-09T09:58:40;101039.91;;;35.56;100.00
59608;BME280;45426;44.726;10.390;2023-07-09T10:01:11;101045.03;;;35.37;100.00
59608;BME280;45426;44.726;10.390;2023-07-09T10:03:38;101043.69;;;35.18;100.00
59608;BME280;45426;44.726;10.390;2023-07-09T10:06:19;101049.22;;;35.12;100.00
59608;BME280;45426;44.726;10.390;2023-07-09T10:11:45;101040.47;;;34.51;100.00
59608;BME280;45426;44.726;10.390;2023-07-09T10:17:18;101047.13;;;35.22;100.00
59608;BME280;45426;44.726;10.390;2023-07-09T10:22:40;101034.44;;;35.03;100.00
59608;BME280;45426;44.726;10.390;2023-07-09T10:25:16;101034.50;;;35.38;100.00
59608;BME280;45426;44.726;10.390;2023-07-09T10:30:57;101027.84;;;35.06;100.00
59608;BME280;45426;44.726;10.390;2023-07-09T10:36:33;101031.34;;;35.00;100.00
59608;BME280;45426;44.726;10.390;2023-07-09T10:39:17;101034.91;;;35.16;100.00
59608;BME280;45426;44.726;10.390;2023-07-09T10:41:45;101032.81;;;34.96;100.00
59608;BME280;45426;44.726;10.390;2023-07-09T10:44:29;101027.44;;;35.13;100.00
59608;BME280;45426;44.726;10.390;2023-07-09T10:47:00;101029.78;;;35.50;100.00
59608;BME280;45426;44.726;10.390;2023-07-09T10:49:33;101034.56;;;35.44;100.00
59608;BME280;45426;44.726;10.390;2023-07-09T10:52:13;101030.47;;;34.94;100.00
59608;BME280;45426;44.726;10.390;2023-07-09T10:55:08;101027.66;;;34.94;100.00
59608;BME280;45426;44.726;10.390;2023-07-09T11:00:04;101023.81;;;35.27;100.00
59608;BME280;45426;44.726;10.390;2023-07-09T11:02:35;101024.91;;;34.40;100.00
59608;BME280;45426;44.726;10.390;2023-07-09T11:05:05;101021.34;;;34.16;100.00
59608;BME280;45426;44.726;10.390;2023-07-09T11:07:42;101021.63;;;35.02;100.00
59608;BME280;45426;44.726;10.390;2023-07-09T11:10:29;101012.16;;;35.19;100.00
59608;BME280;45426;44.726;10.390;2023-07-09T11:13:17;101016.81;;;35.58;100.00
59608;BME280;45426;44.726;10.390;2023-07-09T11:15:47;101015.06;;;35.25;100.00
59608;BME280;45426;44.726;10.390;2023-07-09T11:18:24;101016.28;;;34.74;100.00
59608;BME280;45426;44.726;10.390;2023-07-09T11:20:59;101016.38;;;34.94;100.00
59608;BME280;45426;44.726;10.390;2023-07-09T11:23:25;101011.06;;;35.17;100.00
59608;BME280;45426;44.726;10.390;2023-07-09T11:26:10;101009.72;;;35.48;100.00
59608;BME280;45426;44.726;10.390;2023-07-09T11:28:38;101010.69;;;35.09;100.00
59608;BME280;45426;44.726;10.390;2023-07-09T11:31:14;101013.22;;;35.07;100.00
59608;BME280;45426;44.726;10.390;2023-07-09T11:37:09;101005.63;;;34.00;100.00
59608;BME280;45426;44.726;10.390;2023-07-09T11:42:02;101001.56;;;34.55;100.00
59608;BME280;45426;44.726;10.390;2023-07-09T11:44:32;100995.56;;;35.27;100.00
59608;BME280;45426;44.726;10.390;2023-07-09T11:52:45;100984.25;;;34.32;100.00
59608;BME280;45426;44.726;10.390;2023-07-09T11:55:40;100990.22;;;34.10;100.00
59608;BME280;45426;44.726;10.390;2023-07-09T11:58:09;100991.28;;;34.82;100.00
59608;BME280;45426;44.726;10.390;2023-07-09T12:00:44;100987.19;;;34.68;100.00
59608;BME280;45426;44.726;10.390;2023-07-09T12:03:27;100986.47;;;35.03;100.00
59608;BME280;45426;44.726;10.390;2023-07-09T12:06:04;100985.31;;;34.50;100.00
59608;BME280;45426;44.726;10.390;2023-07-09T12:08:35;100974.59;;;34.98;100.00
59608;BME280;45426;44.726;10.390;2023-07-09T12:11:01;100972.69;;;35.10;100.00
59608;BME280;45426;44.726;10.390;2023-07-09T12:13:26;100965.88;;;35.52;100.00
59608;BME280;45426;44.726;10.390;2023-07-09T12:15:52;100969.31;;;35.21;100.00
59608;BME280;45426;44.726;10.390;2023-07-09T12:18:17;100966.34;;;34.35;100.00
59608;BME280;45426;44.726;10.390;2023-07-09T12:20:48;100972.25;;;33.83;100.00
59608;BME280;45426;44.726;10.390;2023-07-09T12:23:32;100960.81;;;34.71;100.00
59608;BME280;45426;44.726;10.390;2023-07-09T12:26:02;100957.41;;;34.37;100.00
59608;BME280;45426;44.726;10.390;2023-07-09T12:28:29;100961.19;;;34.64;100.00
59608;BME280;45426;44.726;10.390;2023-07-09T12:30:57;100961.41;;;35.10;100.00
59608;BME280;45426;44.726;10.390;2023-07-09T12:33:27;100961.56;;;34.86;100.00
59608;BME280;45426;44.726;10.390;2023-07-09T12:35:56;100950.00;;;34.69;100.00
59608;BME280;45426;44.726;10.390;2023-07-09T12:38:25;100955.47;;;34.73;100.00
59608;BME280;45426;44.726;10.390;2023-07-09T12:40:54;100960.69;;;34.95;100.00
59608;BME280;45426;44.726;10.390;2023-07-09T12:43:27;100949.69;;;35.32;100.00
59608;BME280;45426;44.726;10.390;2023-07-09T12:45:54;100947.44;;;35.57;100.00
59608;BME280;45426;44.726;10.390;2023-07-09T12:48:27;100950.09;;;35.25;100.00
59608;BME280;45426;44.726;10.390;2023-07-09T12:50:56;100948.72;;;35.35;100.00
59608;BME280;45426;44.726;10.390;2023-07-09T12:53:28;100942.25;;;34.99;100.00
59608;BME280;45426;44.726;10.390;2023-07-09T12:55:56;100943.19;;;34.61;100.00
59608;BME280;45426;44.726;10.390;2023-07-09T12:58:24;100931.75;;;34.35;100.00
59608;BME280;45426;44.726;10.390;2023-07-09T13:00:52;100929.94;;;34.82;100.00
59608;BME280;45426;44.726;10.390;2023-07-09T13:03:26;100927.72;;;34.12;100.00
59608;BME280;45426;44.726;10.390;2023-07-09T13:06:02;100930.56;;;34.27;100.00
59608;BME280;45426;44.726;10.390;2023-07-09T13:08:42;100922.16;;;33.88;100.00
59608;BME280;45426;44.726;10.390;2023-07-09T13:11:15;100921.94;;;34.95;100.00
59608;BME280;45426;44.726;10.390;2023-07-09T13:13:41;100915.66;;;35.21;100.00
59608;BME280;45426;44.726;10.390;2023-07-09T13:16:07;100916.50;;;35.48;100.00
59608;BME280;45426;44.726;10.390;2023-07-09T13:18:32;100917.31;;;35.13;100.00
59608;BME280;45426;44.726;10.390;2023-07-09T13:20:59;100918.13;;;34.98;100.00